Time;durP1;ratioP1;P1;durP2;ratioP2;P2;SDS_P1;SDS_P2;PMS_P1;PMS_P2;Temp;Humidity;BMP_temperature;BMP_pressure;BME280_temperature;BME280_humidity;BME280_pressure;Samples;Min_cycle;Max_cycle;Signal;HPM_P1;HPM_P2
2022/10/04 00:02:01;;;;;;;8.07;1.90;;;15.40;93.80;;;;;;4975063;28;20027;-71
2022/10/04 00:04:42;;;;;;;6.57;1.33;;;15.30;93.60;;;;;;4972165;28;20031;-71
2022/10/04 00:07:11;;;;;;;8.95;1.63;;;15.30;93.60;;;;;;4971340;28;20050;-71
2022/10/04 00:09:54;;;;;;;9.32;1.52;;;15.30;93.60;;;;;;4969230;28;20039;-71
2022/10/04 00:12:36;;;;;;;7.40;1.58;;;15.30;93.50;;;;;;4967757;28;20027;-71
2022/10/04 00:15:13;;;;;;;7.03;1.60;;;15.20;93.50;;;;;;4972434;28;20143;-71
2022/10/04 00:17:38;;;;;;;9.85;2.15;;;15.30;93.50;;;;;;4992117;28;20035;-72
2022/10/04 00:20:43;;;;;;;9.13;1.60;;;15.30;93.40;;;;;;4968710;28;20035;-71
2022/10/04 00:23:24;;;;;;;5.43;1.10;;;15.30;93.50;;;;;;4974112;28;20031;-71
2022/10/04 00:25:58;;;;;;;10.07;1.77;;;15.20;93.50;;;;;;4965684;28;20035;-71
2022/10/04 00:28:23;;;;;;;12.88;2.03;;;15.20;93.50;;;;;;4971938;28;20091;-71
2022/10/04 00:31:16;;;;;;;7.95;1.40;;;15.20;93.50;;;;;;4969700;28;20733;-71
2022/10/04 00:33:43;;;;;;;6.15;1.67;;;15.20;93.60;;;;;;4970608;28;20112;-71
2022/10/04 00:36:37;;;;;;;10.98;1.83;;;15.30;93.60;;;;;;4972454;28;20523;-71
2022/10/04 00:39:03;;;;;;;9.80;1.60;;;15.20;93.70;;;;;;4972953;28;20122;-71
2022/10/04 00:41:49;;;;;;;6.63;1.33;;;15.20;93.60;;;;;;4965686;28;20027;-71
2022/10/04 00:44:43;;;;;;;6.10;1.20;;;15.20;93.70;;;;;;4951032;28;20129;-71
2022/10/04 00:47:30;;;;;;;8.73;1.60;;;15.30;93.70;;;;;;4966623;28;20501;-71
2022/10/04 00:50:18;;;;;;;5.07;1.35;;;15.20;93.70;;;;;;4973898;28;20117;-71
2022/10/04 00:52:49;;;;;;;7.47;1.45;;;15.20;93.70;;;;;;4972678;28;20691;-71
2022/10/04 00:55:58;;;;;;;7.05;1.45;;;15.20;93.60;;;;;;4974761;28;20034;-71
2022/10/04 00:58:38;;;;;;;5.38;1.20;;;15.30;93.70;;;;;;4971254;28;20043;-71
2022/10/04 01:01:03;;;;;;;11.15;2.20;;;15.30;93.60;;;;;;4967460;28;20039;-71
2022/10/04 01:03:36;;;;;;;4.50;1.25;;;15.30;93.60;;;;;;4965281;28;20037;-70
2022/10/04 01:06:05;;;;;;;9.30;1.63;;;15.30;93.70;;;;;;4969914;28;20054;-71
2022/10/04 01:08:53;;;;;;;4.90;2.00;;;15.30;93.70;;;;;;4964867;28;20035;-71
2022/10/04 01:11:28;;;;;;;7.05;1.92;;;15.30;93.50;;;;;;4974679;28;20079;-71
2022/10/04 01:14:00;;;;;;;7.68;1.85;;;15.20;93.60;;;;;;4971040;28;20042;-71
2022/10/04 01:16:32;;;;;;;7.45;1.33;;;15.20;93.70;;;;;;4970170;28;20066;-71
2022/10/04 01:19:23;;;;;;;6.68;1.75;;;15.20;93.70;;;;;;4966805;28;20039;-71
2022/10/04 01:22:04;;;;;;;8.13;1.42;;;15.20;93.70;;;;;;4968485;28;20042;-71
2022/10/04 01:24:35;;;;;;;6.95;1.20;;;15.20;93.80;;;;;;4964498;28;20078;-71
2022/10/04 01:27:01;;;;;;;5.97;1.30;;;15.20;93.80;;;;;;4973658;28;20035;-71
2022/10/04 01:29:30;;;;;;;12.18;2.25;;;15.20;93.70;;;;;;4968642;28;20543;-71
2022/10/04 01:31:59;;;;;;;11.88;2.42;;;15.20;93.80;;;;;;4968690;28;20099;-71
2022/10/04 01:34:27;;;;;;;8.38;1.98;;;15.20;93.70;;;;;;4970099;28;20125;-71
2022/10/04 01:36:56;;;;;;;11.20;1.90;;;15.20;93.70;;;;;;4972435;28;20043;-71
2022/10/04 01:39:24;;;;;;;8.38;1.73;;;15.20;93.70;;;;;;4965692;28;20077;-71
2022/10/04 01:42:22;;;;;;;9.10;1.63;;;15.20;93.70;;;;;;4967027;28;20054;-71
2022/10/04 01:45:01;;;;;;;5.15;1.50;;;15.20;93.70;;;;;;4967507;28;20062;-71
2022/10/04 01:47:54;;;;;;;5.60;1.58;;;15.10;93.70;;;;;;4971449;28;20717;-71
2022/10/04 01:50:25;;;;;;;9.55;1.80;;;15.20;93.80;;;;;;4974018;28;20773;-71
2022/10/04 01:53:00;;;;;;;6.72;1.30;;;15.10;93.70;;;;;;4967320;28;20456;-71
2022/10/04 01:55:33;;;;;;;4.33;1.37;;;15.10;93.90;;;;;;4970067;28;20057;-72
2022/10/04 01:58:10;;;;;;;5.05;1.02;;;15.10;94.10;;;;;;4974326;28;20045;-72
2022/10/04 02:00:40;;;;;;;4.70;1.30;;;15.10;93.80;;;;;;4964471;28;20034;-71
2022/10/04 02:03:27;;;;;;;7.55;1.95;;;15.10;93.80;;;;;;4973902;28;20035;-71
2022/10/04 02:05:59;;;;;;;9.25;1.70;;;15.10;93.70;;;;;;4969163;28;20051;-71
2022/10/04 02:08:31;;;;;;;6.93;1.40;;;15.10;93.60;;;;;;4975874;28;20786;-71
2022/10/04 02:11:00;;;;;;;7.43;1.73;;;15.10;93.70;;;;;;4969766;28;20044;-71
2022/10/04 02:13:32;;;;;;;7.55;1.63;;;15.10;93.70;;;;;;4968575;28;20781;-71
2022/10/04 02:15:58;;;;;;;3.67;1.63;;;15.10;93.80;;;;;;4961369;28;20491;-71
2022/10/04 02:18:26;;;;;;;6.85;1.60;;;15.10;93.70;;;;;;4970103;28;20031;-71
2022/10/04 02:20:53;;;;;;;6.85;1.65;;;15.10;93.80;;;;;;4965572;28;20042;-71
2022/10/04 02:23:21;;;;;;;5.97;1.63;;;15.10;93.70;;;;;;4964784;28;20126;-71
2022/10/04 02:25:47;;;;;;;6.38;1.73;;;15.10;93.70;;;;;;4971849;28;20047;-71
2022/10/04 02:28:14;;;;;;;10.95;1.85;;;15.10;93.80;;;;;;4971525;28;20038;-71
2022/10/04 02:33:42;;;;;;;5.03;1.35;;;15.00;93.60;;;;;;4971727;28;20105;-71
2022/10/04 02:36:09;;;;;;;10.07;1.38;;;15.00;93.70;;;;;;4963856;28;20046;-71
2022/10/04 02:39:01;;;;;;;7.40;1.50;;;15.00;93.80;;;;;;4979924;28;20088;-71
2022/10/04 02:41:32;;;;;;;9.07;1.60;;;15.00;93.70;;;;;;4958361;28;20160;-71
2022/10/04 02:44:15;;;;;;;9.25;1.73;;;15.00;93.70;;;;;;4963250;28;20065;-71
2022/10/04 02:46:54;;;;;;;9.57;2.30;;;15.00;93.80;;;;;;4969437;28;20031;-71
2022/10/04 02:49:32;;;;;;;8.02;1.65;;;15.00;93.90;;;;;;4973368;28;20735;-71
2022/10/04 02:52:18;;;;;;;6.85;1.50;;;15.00;93.90;;;;;;4964544;28;20543;-71
2022/10/04 02:54:53;;;;;;;;;;;15.10;93.90;;;;;;4971080;28;20043;-71
2022/10/04 02:57:21;;;;;;;5.22;1.40;;;15.10;93.80;;;;;;4964815;28;19918;-71
2022/10/04 02:59:48;;;;;;;8.63;1.70;;;15.00;93.80;;;;;;4961177;28;20039;-71
2022/10/04 03:02:24;;;;;;;6.72;1.70;;;15.00;93.80;;;;;;4969426;28;20498;-72
2022/10/04 03:04:52;;;;;;;7.07;1.85;;;15.00;93.90;;;;;;4966171;28;20042;-71
2022/10/04 03:07:18;;;;;;;8.68;1.70;;;15.00;94.00;;;;;;4966220;28;20030;-71
2022/10/04 03:09:44;;;;;;;8.85;1.83;;;15.00;94.10;;;;;;4971544;28;20839;-71
2022/10/04 03:12:12;;;;;;;5.65;2.33;;;14.90;94.10;;;;;;4963036;28;20034;-71
2022/10/04 03:14:39;;;;;;;9.75;1.77;;;14.90;94.30;;;;;;4964842;28;20026;-71
2022/10/04 03:17:06;;;;;;;6.47;1.80;;;14.90;94.30;;;;;;4969116;28;20039;-71
2022/10/04 03:19:33;;;;;;;6.60;1.55;;;14.90;94.20;;;;;;4968830;28;20251;-71
2022/10/04 03:22:05;;;;;;;5.80;1.58;;;14.90;94.30;;;;;;4968586;28;20027;-71
2022/10/04 03:24:45;;;;;;;9.93;1.95;;;14.90;94.30;;;;;;4971111;28;20046;-71
2022/10/04 03:27:32;;;;;;;4.43;1.40;;;14.90;94.40;;;;;;4965447;28;20047;-71
2022/10/04 03:30:00;;;;;;;5.70;1.60;;;14.80;94.40;;;;;;4962903;28;20043;-71
2022/10/04 03:32:29;;;;;;;6.20;2.10;;;14.80;94.30;;;;;;4966920;28;20395;-71
2022/10/04 03:34:59;;;;;;;9.02;2.00;;;14.80;94.40;;;;;;4958736;28;20073;-71
2022/10/04 03:37:28;;;;;;;4.10;1.55;;;14.80;94.40;;;;;;4968584;28;20383;-71
2022/10/04 03:39:56;;;;;;;4.63;1.52;;;14.70;94.40;;;;;;4967539;28;20070;-71
2022/10/04 03:42:24;;;;;;;7.38;2.17;;;14.70;94.40;;;;;;4962596;28;20026;-71
2022/10/04 03:44:54;;;;;;;5.85;2.20;;;14.70;94.40;;;;;;4967353;28;20022;-71
2022/10/04 03:47:25;;;;;;;6.28;1.80;;;14.60;94.40;;;;;;4974480;28;20049;-71
2022/10/04 03:49:53;;;;;;;9.45;1.85;;;14.60;94.40;;;;;;4962709;28;20057;-71
2022/10/04 03:52:31;;;;;;;6.22;1.58;;;14.60;94.40;;;;;;4966606;28;20575;-71
2022/10/04 03:55:00;;;;;;;6.72;1.50;;;14.60;94.40;;;;;;4969317;28;20039;-71
2022/10/04 03:57:27;;;;;;;14.48;1.70;;;14.50;94.40;;;;;;4963075;28;20034;-71
2022/10/04 03:59:53;;;;;;;6.07;1.83;;;14.50;94.50;;;;;;4969154;28;20150;-71
2022/10/04 04:02:25;;;;;;;5.18;1.80;;;14.50;94.50;;;;;;4969093;28;20511;-71
2022/10/04 04:05:02;;;;;;;8.38;2.55;;;14.50;94.60;;;;;;4970057;28;20085;-71
2022/10/04 04:07:59;;;;;;;5.25;2.00;;;14.50;94.60;;;;;;4971104;28;20035;-72
2022/10/04 04:10:30;;;;;;;8.02;2.15;;;14.50;94.50;;;;;;4963296;28;20047;-71
2022/10/04 04:13:02;;;;;;;3.58;1.52;;;14.50;94.40;;;;;;4973433;28;20470;-70
2022/10/04 04:15:32;;;;;;;6.78;2.35;;;14.50;94.30;;;;;;4968784;28;20125;-71
2022/10/04 04:18:19;;;;;;;4.90;1.50;;;14.50;94.30;;;;;;4963223;28;20027;-72
2022/10/04 04:20:47;;;;;;;4.63;1.60;;;14.50;94.20;;;;;;4971926;28;20054;-71
2022/10/04 04:23:13;;;;;;;5.40;1.60;;;14.50;94.20;;;;;;4967453;28;20043;-72
2022/10/04 04:25:41;;;;;;;8.77;2.58;;;14.50;94.10;;;;;;4971235;28;20034;-71
2022/10/04 04:28:13;;;;;;;4.47;1.77;;;14.50;94.10;;;;;;4971328;28;20411;-71
2022/10/04 04:30:45;;;;;;;4.15;1.48;;;14.50;94.00;;;;;;4970263;28;20427;-71
2022/10/04 04:33:25;;;;;;;10.85;2.28;;;14.50;94.00;;;;;;4965078;28;20062;-71
2022/10/04 04:35:55;;;;;;;6.65;1.90;;;14.60;93.90;;;;;;4967024;28;20038;-71
2022/10/04 04:38:23;;;;;;;7.20;2.00;;;14.60;93.80;;;;;;4976430;28;20507;-71
2022/10/04 04:40:54;;;;;;;9.65;2.08;;;14.60;93.80;;;;;;4970249;28;20086;-71
2022/10/04 04:43:23;;;;;;;4.00;1.50;;;14.60;93.90;;;;;;4971613;28;20033;-71
2022/10/04 04:45:50;;;;;;;8.73;1.77;;;14.50;93.70;;;;;;4969545;28;20067;-71
2022/10/04 04:48:18;;;;;;;3.03;1.80;;;14.60;93.70;;;;;;4965897;28;20038;-71
2022/10/04 04:50:57;;;;;;;7.50;2.33;;;14.60;93.60;;;;;;4973253;28;20045;-71
2022/10/04 04:53:26;;;;;;;12.15;2.63;;;14.60;93.70;;;;;;4973721;28;20046;-71
2022/10/04 04:56:00;;;;;;;6.57;2.10;;;14.60;93.60;;;;;;4965939;28;20487;-71
2022/10/04 04:58:42;;;;;;;10.82;2.72;;;14.60;93.90;;;;;;4979124;28;20038;-71
2022/10/04 05:01:28;;;;;;;11.60;2.85;;;14.50;93.60;;;;;;4968184;28;20039;-71
2022/10/04 05:04:12;;;;;;;6.18;2.30;;;14.50;93.60;;;;;;4968569;28;20027;-71
2022/10/04 05:06:47;;;;;;;4.57;1.90;;;14.50;93.60;;;;;;4969875;28;20464;-71
2022/10/04 05:09:34;;;;;;;8.68;2.03;;;14.60;93.60;;;;;;4972815;28;20042;-71
2022/10/04 05:12:14;;;;;;;;;;;14.60;93.60;;;;;;4965732;28;20137;-71
2022/10/04 05:14:46;;;;;;;4.85;2.30;;;14.60;93.50;;;;;;4968665;28;19917;-70
2022/10/04 05:17:22;;;;;;;7.05;2.35;;;14.60;93.60;;;;;;4968757;28;20061;-71
2022/10/04 05:19:49;;;;;;;7.45;2.47;;;14.60;93.60;;;;;;4969530;28;20048;-71
2022/10/04 05:22:19;;;;;;;5.88;2.40;;;14.60;93.60;;;;;;4972097;28;20073;-71
2022/10/04 05:24:50;;;;;;;5.57;2.55;;;14.50;93.60;;;;;;4974351;28;20039;-71
2022/10/04 05:27:34;;;;;;;4.57;2.20;;;14.60;93.70;;;;;;4971760;28;20053;-72
2022/10/04 05:30:23;;;;;;;6.20;2.33;;;14.60;93.80;;;;;;4965400;28;20045;-71
2022/10/04 05:32:49;;;;;;;11.02;2.78;;;14.60;93.60;;;;;;4967021;28;20125;-71
2022/10/04 05:35:17;;;;;;;5.15;2.38;;;14.60;93.60;;;;;;4972649;28;22286;-71
2022/10/04 05:38:11;;;;;;;7.50;2.67;;;14.60;93.60;;;;;;4970806;28;20482;-71
2022/10/04 05:41:06;;;;;;;6.60;2.67;;;14.60;93.70;;;;;;4969828;28;20046;-71
2022/10/04 05:43:37;;;;;;;7.32;2.90;;;14.60;93.80;;;;;;4969336;28;20038;-71
2022/10/04 05:46:32;;;;;;;6.20;2.38;;;14.60;93.70;;;;;;4972636;28;20038;-71
2022/10/04 05:49:01;;;;;;;7.10;2.53;;;14.60;93.70;;;;;;4972859;28;20047;-71
2022/10/04 05:51:29;;;;;;;7.00;2.33;;;14.60;93.70;;;;;;4967423;28;20113;-71
2022/10/04 05:54:00;;;;;;;7.90;2.40;;;14.60;93.60;;;;;;4969538;28;20041;-71
2022/10/04 05:56:29;;;;;;;7.88;2.60;;;14.70;93.60;;;;;;4972520;28;20160;-71
2022/10/04 05:59:32;;;;;;;5.70;3.00;;;14.70;93.80;;;;;;4966717;28;20157;-71
2022/10/04 06:02:08;;;;;;;8.27;2.53;;;14.70;93.80;;;;;;4962585;28;20077;-71
2022/10/04 06:04:55;;;;;;;10.20;2.80;;;14.80;93.80;;;;;;4970105;28;20035;-71
2022/10/04 06:07:41;;;;;;;11.38;3.00;;;14.80;93.90;;;;;;4966326;28;20074;-71
2022/10/04 06:10:44;;;;;;;4.38;2.13;;;14.80;93.90;;;;;;4972524;28;20039;-72
2022/10/04 06:13:40;;;;;;;8.65;2.78;;;14.80;93.80;;;;;;4973771;28;20045;-71
2022/10/04 06:16:14;;;;;;;10.75;2.63;;;14.80;93.80;;;;;;4963059;28;20066;-72
2022/10/04 06:19:19;;;;;;;9.18;3.47;;;14.80;93.80;;;;;;4970389;28;20026;-71
2022/10/04 06:21:55;;;;;;;8.88;3.30;;;14.90;93.90;;;;;;4965912;28;20027;-71
2022/10/04 06:24:37;;;;;;;10.32;3.35;;;14.90;94.00;;;;;;4961941;28;20082;-71
2022/10/04 06:27:19;;;;;;;11.30;3.75;;;14.90;94.10;;;;;;4968049;28;20049;-72
2022/10/04 06:29:55;;;;;;;12.10;4.07;;;14.90;94.00;;;;;;4970759;28;20551;-71
2022/10/04 06:32:48;;;;;;;9.77;3.58;;;14.90;94.00;;;;;;4971056;28;20038;-71
2022/10/04 06:35:44;;;;;;;11.60;3.33;;;14.90;93.80;;;;;;4972472;28;20053;-71
2022/10/04 06:38:45;;;;;;;8.40;2.80;;;14.90;93.90;;;;;;4962231;28;20027;-71
2022/10/04 06:41:29;;;;;;;7.40;3.13;;;14.90;94.00;;;;;;4960192;28;20216;-71
2022/10/04 06:43:58;;;;;;;9.85;3.08;;;15.00;94.00;;;;;;4958980;28;20494;-72
2022/10/04 06:46:32;;;;;;;4.90;2.75;;;15.00;93.90;;;;;;4970065;28;20078;-71
2022/10/04 06:49:35;;;;;;;9.48;2.83;;;15.10;93.80;;;;;;4966792;28;20474;-71
2022/10/04 06:52:22;;;;;;;8.10;3.42;;;15.10;93.50;;;;;;4963601;28;20042;-71
2022/10/04 06:55:16;;;;;;;9.40;3.38;;;15.20;93.50;;;;;;4969248;28;20049;-71
2022/10/04 06:58:17;;;;;;;4.25;2.22;;;15.20;93.40;;;;;;4960750;28;20053;-71
2022/10/04 07:00:55;;;;;;;10.27;2.50;;;15.20;93.30;;;;;;4959239;28;20038;-71
2022/10/04 07:03:27;;;;;;;9.18;2.60;;;15.30;93.20;;;;;;4968277;28;20045;-71
2022/10/04 07:06:03;;;;;;;10.13;2.53;;;15.30;93.20;;;;;;4962809;28;20046;-71
2022/10/04 07:08:35;;;;;;;7.55;2.65;;;15.40;93.00;;;;;;4969375;28;20054;-71
2022/10/04 07:11:20;;;;;;;6.30;2.42;;;15.40;93.10;;;;;;4967448;28;20086;-71
2022/10/04 07:14:01;;;;;;;7.00;2.72;;;15.40;93.00;;;;;;4960529;28;20086;-71
2022/10/04 07:16:50;;;;;;;6.50;2.25;;;15.50;92.90;;;;;;4969804;28;20835;-71
2022/10/04 07:19:19;;;;;;;7.00;2.25;;;15.50;92.80;;;;;;4965317;28;20030;-71
2022/10/04 07:22:04;;;;;;;5.05;1.95;;;15.50;92.80;;;;;;4967799;28;20027;-71
2022/10/04 07:24:58;;;;;;;4.68;2.13;;;15.60;92.70;;;;;;4967155;28;20082;-71
2022/10/04 07:27:33;;;;;;;8.18;2.63;;;15.50;92.70;;;;;;4962192;28;20066;-70
2022/10/04 07:30:04;;;;;;;5.72;2.20;;;15.60;92.70;;;;;;4969646;28;20883;-71
2022/10/04 07:32:35;;;;;;;7.95;2.67;;;15.60;92.60;;;;;;4973340;28;20093;-77
2022/10/04 07:35:11;;;;;;;7.05;1.77;;;15.70;92.50;;;;;;4967527;28;20129;-77
2022/10/04 07:38:18;;;;;;;4.97;2.10;;;15.70;92.40;;;;;;4972136;28;20157;-76
2022/10/04 07:41:19;;;;;;;7.83;2.70;;;15.70;92.60;;;;;;4964561;28;20069;-76
2022/10/04 07:43:56;;;;;;;9.00;2.90;;;15.80;92.50;;;;;;4964099;28;20129;-76
2022/10/04 07:46:39;;;;;;;8.77;2.67;;;15.80;92.40;;;;;;4967785;28;20049;-76
2022/10/04 07:49:13;;;;;;;5.68;2.65;;;15.80;92.40;;;;;;4969418;28;20026;-78
2022/10/04 07:51:44;;;;;;;8.52;2.40;;;15.80;92.30;;;;;;4967575;28;20042;-76
2022/10/04 07:54:41;;;;;;;4.97;2.40;;;15.90;92.20;;;;;;4972304;28;20600;-75
2022/10/04 07:57:19;;;;;;;5.85;2.03;;;15.80;92.20;;;;;;4971296;28;20046;-76
2022/10/04 08:00:16;;;;;;;5.18;2.00;;;15.90;92.20;;;;;;4972361;28;20038;-74
2022/10/04 08:02:48;;;;;;;5.72;2.70;;;16.00;92.30;;;;;;4972691;28;20030;-74
2022/10/04 08:05:27;;;;;;;10.32;2.22;;;16.00;92.10;;;;;;4973996;28;20045;-74
2022/10/04 08:08:07;;;;;;;6.40;2.38;;;16.10;92.10;;;;;;4970800;28;20097;-74
2022/10/04 08:10:51;;;;;;;9.50;2.80;;;16.10;92.30;;;;;;4965911;28;20035;-77
2022/10/04 08:13:32;;;;;;;6.20;2.45;;;16.10;91.90;;;;;;4971521;28;20117;-75
2022/10/04 08:16:14;;;;;;;8.80;2.70;;;16.20;91.90;;;;;;4972402;28;20042;-73
2022/10/04 08:19:25;;;;;;;8.13;2.47;;;16.20;91.50;;;;;;4972398;28;20022;-73
2022/10/04 08:22:02;;;;;;;6.15;2.10;;;16.30;91.60;;;;;;4971458;28;20097;-74
2022/10/04 08:24:39;;;;;;;9.65;2.85;;;16.30;91.60;;;;;;4976985;28;20034;-74
2022/10/04 08:29:41;;;;;;;5.50;2.42;;;16.40;91.60;;;;;;4974288;28;20038;-78
2022/10/04 08:31:16;;;;;;;7.97;2.13;;;16.40;91.70;;;;;;4925482;28;20042;-73
2022/10/04 08:34:00;;;;;;;21.55;12.63;;;16.40;91.50;;;;;;4959381;28;20494;-70
2022/10/04 08:37:04;;;;;;;10.68;3.17;;;16.50;91.20;;;;;;4970248;28;20031;-70
2022/10/04 08:39:50;;;;;;;9.32;3.33;;;16.50;91.20;;;;;;4973502;28;20583;-71
2022/10/04 08:42:55;;;;;;;12.73;2.63;;;16.50;91.20;;;;;;4970450;28;20101;-71
2022/10/04 08:45:55;;;;;;;8.10;2.67;;;16.50;91.00;;;;;;4974676;28;20038;-71
2022/10/04 08:48:27;;;;;;;9.50;2.92;;;16.50;91.20;;;;;;4967040;28;20038;-70
2022/10/04 08:51:17;;;;;;;5.35;2.53;;;16.50;91.20;;;;;;4974786;28;20030;-70
2022/10/04 08:54:23;;;;;;;7.20;3.03;;;16.50;91.10;;;;;;4969071;28;20109;-71
2022/10/04 08:57:01;;;;;;;8.40;2.58;;;16.50;91.20;;;;;;4969706;28;20097;-70
2022/10/04 08:59:56;;;;;;;6.93;2.83;;;16.50;91.20;;;;;;4972902;28;20826;-70
2022/10/04 09:02:38;;;;;;;8.85;3.05;;;16.60;91.30;;;;;;4988048;28;20521;-68
2022/10/04 09:05:42;;;;;;;5.03;2.22;;;16.60;91.10;;;;;;4969158;28;20046;-70
2022/10/04 09:08:26;;;;;;;9.05;2.50;;;16.60;91.10;;;;;;4972218;28;20035;-70
2022/10/04 09:10:58;;;;;;;8.43;2.75;;;16.70;91.20;;;;;;4967743;28;20045;-71
2022/10/04 09:13:47;;;;;;;14.07;3.50;;;16.70;91.20;;;;;;4970026;28;20039;-74
2022/10/04 09:16:16;;;;;;;9.25;2.78;;;16.80;91.10;;;;;;4968226;28;20035;-72
2022/10/04 09:19:15;;;;;;;10.57;2.70;;;16.80;90.70;;;;;;4971646;28;20840;-73
2022/10/04 09:22:00;;;;;;;9.32;2.75;;;16.90;90.70;;;;;;4970031;28;20030;-72
2022/10/04 09:24:38;;;;;;;15.40;3.92;;;16.90;90.60;;;;;;4967528;28;20457;-73
2022/10/04 09:27:26;;;;;;;13.63;3.80;;;17.00;90.40;;;;;;4967916;28;20043;-73
2022/10/04 09:30:15;;;;;;;8.30;2.92;;;17.00;90.30;;;;;;4968537;28;20399;-73
2022/10/04 09:32:49;;;;;;;8.70;3.30;;;17.00;90.10;;;;;;4963557;28;20420;-74
2022/10/04 09:35:52;;;;;;;16.10;3.17;;;17.00;89.90;;;;;;4974621;28;20512;-73
2022/10/04 09:38:21;;;;;;;12.18;2.92;;;17.10;89.60;;;;;;4973461;28;20038;-72
2022/10/04 09:41:05;;;;;;;7.88;2.40;;;17.30;89.00;;;;;;4971630;28;20035;-74
2022/10/04 09:43:49;;;;;;;8.52;2.10;;;17.40;88.20;;;;;;4973475;28;20448;-73
2022/10/04 09:46:28;;;;;;;7.88;2.00;;;17.50;87.40;;;;;;4967031;28;20938;-73
2022/10/04 09:49:14;;;;;;;7.95;1.88;;;17.60;84.90;;;;;;4973076;28;20042;-74
2022/10/04 09:52:07;;;;;;;4.43;2.00;;;17.70;85.80;;;;;;4970306;28;20042;-73
2022/10/04 09:54:58;;;;;;;4.78;1.80;;;17.90;84.80;;;;;;4948903;28;20042;-72
2022/10/04 09:57:38;;;;;;;4.93;1.73;;;18.00;82.70;;;;;;4968079;28;20035;-73
2022/10/04 10:00:21;;;;;;;3.45;1.20;;;18.10;82.20;;;;;;4966876;28;20100;-71
2022/10/04 10:03:12;;;;;;;6.68;2.13;;;18.10;82.10;;;;;;4969526;28;20038;-71
2022/10/04 10:06:05;;;;;;;3.75;1.42;;;18.20;81.50;;;;;;4968060;28;20041;-72
2022/10/04 10:08:40;;;;;;;5.78;1.30;;;18.40;82.10;;;;;;4962880;28;20038;-70
2022/10/04 10:14:07;;;;;;;10.80;1.60;;;19.20;78.00;;;;;;4968640;28;20129;-71
2022/10/04 10:16:48;;;;;;;10.15;1.90;;;19.30;78.60;;;;;;4967181;28;20403;-71
2022/10/04 10:19:26;;;;;;;7.60;1.75;;;19.90;77.80;;;;;;4966933;28;20041;-72
2022/10/04 10:22:26;;;;;;;8.63;1.88;;;20.50;74.00;;;;;;4968395;28;20031;-72
2022/10/04 10:25:24;;;;;;;8.60;1.70;;;20.40;73.40;;;;;;4974943;28;20049;-73
2022/10/04 10:27:52;;;;;;;5.22;1.23;;;20.20;74.00;;;;;;4969642;28;20126;-73
2022/10/04 10:30:37;;;;;;;3.58;1.30;;;20.40;75.00;;;;;;4974595;28;20038;-74
2022/10/04 10:33:36;;;;;;;6.47;1.80;;;21.70;72.50;;;;;;4970029;28;20400;-74
2022/10/04 10:36:35;;;;;;;5.72;1.70;;;23.30;65.30;;;;;;4968079;28;20953;-74
2022/10/04 10:39:19;;;;;;;4.38;1.25;;;23.90;62.60;;;;;;4964947;28;20050;-74
2022/10/04 10:42:15;;;;;;;6.13;1.40;;;23.60;63.50;;;;;;4971031;28;20438;-74
2022/10/04 10:45:08;;;;;;;7.95;1.52;;;24.80;60.40;;;;;;4963684;28;20031;-74
2022/10/04 10:48:03;;;;;;;6.88;2.03;;;24.80;58.50;;;;;;4967743;28;20042;-74
2022/10/04 10:51:00;;;;;;;5.07;1.38;;;23.80;60.80;;;;;;4965121;28;20085;-74
2022/10/04 10:54:04;;;;;;;6.45;1.88;;;22.80;63.40;;;;;;4961972;28;20085;-74
2022/10/04 10:56:46;;;;;;;4.90;1.23;;;21.90;66.70;;;;;;4967600;28;20042;-74
2022/10/04 10:59:36;;;;;;;6.90;1.90;;;21.40;69.20;;;;;;4962459;28;20823;-74
2022/10/04 11:02:27;;;;;;;5.55;1.40;;;20.90;70.50;;;;;;4966036;28;20073;-74
2022/10/04 11:05:15;;;;;;;7.68;1.50;;;20.60;72.00;;;;;;4968831;28;20275;-74
2022/10/04 11:08:00;;;;;;;7.65;1.58;;;20.40;72.10;;;;;;4967729;28;20026;-74
2022/10/04 11:11:04;;;;;;;6.53;1.15;;;20.20;73.30;;;;;;4981290;28;20039;-74
2022/10/04 11:14:10;;;;;;;3.67;1.55;;;20.10;74.30;;;;;;4964809;28;20138;-74
2022/10/04 11:17:06;;;;;;;7.82;1.35;;;20.00;74.90;;;;;;4944244;28;20047;-74
2022/10/04 11:19:45;;;;;;;7.28;1.60;;;20.00;74.30;;;;;;4970074;28;20046;-74
2022/10/04 11:22:43;;;;;;;4.32;1.17;;;20.00;75.20;;;;;;4961161;28;20034;-74
2022/10/04 11:25:24;;;;;;;4.18;1.20;;;20.00;76.00;;;;;;4970185;28;20080;-74
2022/10/04 11:28:03;;;;;;;6.10;1.35;;;20.00;75.90;;;;;;4965424;28;20046;-73
2022/10/04 11:30:57;;;;;;;7.05;1.17;;;20.00;74.20;;;;;;4976434;28;20030;-74
2022/10/04 11:33:40;;;;;;;10.43;1.88;;;19.90;75.10;;;;;;4953428;28;20543;-74
2022/10/04 11:36:30;;;;;;;5.20;1.40;;;19.80;75.20;;;;;;4964486;28;20153;-74
2022/10/04 11:39:05;;;;;;;5.32;1.17;;;19.60;75.90;;;;;;4966020;28;20046;-74
2022/10/04 11:41:53;;;;;;;6.90;1.33;;;19.60;76.60;;;;;;4968354;28;20117;-74
2022/10/04 11:44:47;;;;;;;5.20;1.27;;;19.60;76.70;;;;;;4967276;28;20154;-73
2022/10/04 11:47:40;;;;;;;2.55;0.90;;;19.60;75.80;;;;;;4969587;28;20452;-73
2022/10/04 11:50:48;;;;;;;2.58;0.98;;;19.60;75.40;;;;;;4959946;28;20049;-73
2022/10/04 11:53:20;;;;;;;9.25;1.30;;;19.50;75.60;;;;;;4966145;28;20086;-74
2022/10/04 11:56:15;;;;;;;2.80;1.08;;;19.40;76.00;;;;;;4967087;28;20043;-74
2022/10/04 11:59:07;;;;;;;4.85;1.10;;;19.30;76.40;;;;;;4961504;28;20030;-74
2022/10/04 12:01:58;;;;;;;3.63;0.90;;;19.30;76.40;;;;;;4969170;28;20142;-74
2022/10/04 12:05:13;;;;;;;4.50;1.58;;;19.20;77.40;;;;;;4963108;28;20082;-74
2022/10/04 12:08:19;;;;;;;6.65;1.05;;;19.40;76.50;;;;;;4902359;28;20080;-74
2022/10/04 12:11:26;;;;;;;8.73;1.40;;;19.50;75.90;;;;;;4966143;28;20510;-73
2022/10/04 12:14:04;;;;;;;4.32;1.05;;;19.50;76.80;;;;;;4962835;28;20030;-74
2022/10/04 12:16:51;;;;;;;5.00;0.98;;;19.60;76.70;;;;;;4970071;28;20034;-74
2022/10/04 12:19:32;;;;;;;;;;;19.60;76.40;;;;;;4962381;28;20510;-74
2022/10/04 12:22:12;;;;;;;3.75;0.88;;;19.70;75.70;;;;;;4966404;28;20298;-73
2022/10/04 12:25:10;;;;;;;3.30;0.98;;;19.60;74.30;;;;;;4968130;28;20486;-73
2022/10/04 12:28:13;;;;;;;4.15;1.00;;;19.50;74.60;;;;;;4964458;28;20029;-74
2022/10/04 12:31:07;;;;;;;4.60;0.70;;;19.40;75.30;;;;;;4969092;28;20045;-73
2022/10/04 12:34:18;;;;;;;6.18;1.00;;;19.40;76.10;;;;;;4969447;28;20145;-72
2022/10/04 12:37:02;;;;;;;5.63;0.85;;;19.40;76.30;;;;;;4953564;28;20422;-72
2022/10/04 12:39:40;;;;;;;7.82;1.55;;;19.30;76.40;;;;;;4975768;28;20035;-73
2022/10/04 12:42:42;;;;;;;3.58;0.80;;;19.30;76.10;;;;;;4971823;28;20085;-73
2022/10/04 12:45:23;;;;;;;9.43;1.40;;;19.40;76.40;;;;;;4972546;28;20093;-74
2022/10/04 12:47:55;;;;;;;7.53;1.27;;;19.40;76.60;;;;;;4963483;28;20034;-74
2022/10/04 12:50:21;;;;;;;5.07;1.30;;;19.40;75.50;;;;;;4973158;28;20042;-73
2022/10/04 12:52:59;;;;;;;4.70;1.20;;;19.40;76.00;;;;;;4974985;28;20026;-73
2022/10/04 12:55:37;;;;;;;5.97;1.20;;;19.40;76.60;;;;;;4969236;28;20120;-73
2022/10/04 12:58:14;;;;;;;4.80;1.42;;;19.40;76.50;;;;;;4967409;28;20037;-73
2022/10/04 13:00:44;;;;;;;5.10;1.40;;;19.40;75.80;;;;;;4969217;28;20030;-73
2022/10/04 13:03:33;;;;;;;7.40;1.30;;;19.40;76.50;;;;;;4967522;28;20027;-73
2022/10/04 13:06:28;;;;;;;9.60;1.52;;;19.50;75.50;;;;;;4972179;28;20094;-74
2022/10/04 13:09:08;;;;;;;8.13;1.27;;;19.50;74.50;;;;;;4972830;28;20042;-74
2022/10/04 13:11:56;;;;;;;2.45;1.20;;;19.60;75.00;;;;;;4968135;28;20407;-74
2022/10/04 13:14:34;;;;;;;6.53;1.40;;;19.60;74.60;;;;;;4969765;28;20466;-74
2022/10/04 13:17:10;;;;;;;6.63;1.13;;;19.70;73.80;;;;;;4962672;28;20038;-74
2022/10/04 13:19:51;;;;;;;4.00;1.35;;;19.70;74.10;;;;;;4968090;28;20550;-73
2022/10/04 13:22:49;;;;;;;6.35;1.23;;;19.70;74.50;;;;;;4967851;28;20179;-73
2022/10/04 13:25:24;;;;;;;2.58;1.20;;;19.80;74.10;;;;;;4963805;28;20090;-74
2022/10/04 13:27:56;;;;;;;5.55;1.05;;;19.80;72.80;;;;;;4972775;28;20038;-73
2022/10/04 13:30:26;;;;;;;3.42;0.90;;;19.80;73.10;;;;;;4977713;28;20052;-73
2022/10/04 13:33:13;;;;;;;7.57;0.90;;;19.80;73.40;;;;;;4973714;28;20034;-73
2022/10/04 13:35:53;;;;;;;4.65;1.02;;;19.80;72.50;;;;;;4970033;28;20035;-74
2022/10/04 13:38:43;;;;;;;4.07;1.05;;;19.80;71.70;;;;;;4971092;28;20039;-73
2022/10/04 13:41:58;;;;;;;9.90;0.90;;;19.80;72.00;;;;;;4970425;28;20294;-74
2022/10/04 13:44:49;;;;;;;4.47;1.10;;;19.70;71.80;;;;;;4964114;28;20510;-73
2022/10/04 13:47:53;;;;;;;4.55;1.23;;;19.60;72.40;;;;;;4965152;28;20039;-73
2022/10/04 13:50:42;;;;;;;4.50;0.80;;;19.40;71.90;;;;;;4971212;28;20073;-73
2022/10/04 13:59:09;;;;;;;3.97;0.70;;;19.40;72.30;;;;;;4970348;28;20190;-74
2022/10/04 14:01:54;;;;;;;3.78;0.77;;;19.30;72.80;;;;;;4972495;28;20105;-74
2022/10/04 14:04:41;;;;;;;3.30;0.90;;;19.30;71.40;;;;;;4968508;28;20554;-75
2022/10/04 14:07:34;;;;;;;3.72;1.30;;;19.20;70.50;;;;;;4976865;28;20038;-76
2022/10/04 14:10:22;;;;;;;3.45;0.80;;;19.20;71.20;;;;;;4964972;28;20049;-76
2022/10/04 14:12:48;;;;;;;3.78;1.00;;;19.10;72.70;;;;;;4971999;28;20034;-73